Time;durP1;ratioP1;P1;durP2;ratioP2;P2;SDS_P1;SDS_P2;PMS_P1;PMS_P2;Temp;Humidity;BMP_temperature;BMP_pressure;BME280_temperature;BME280_humidity;BME280_pressure;Samples;Min_cycle;Max_cycle;Signal;HPM_P1;HPM_P2
2022/01/29 00:02:19;;;;;;;12.60;6.82;;;;;;;-1.86;87.04;98998.72;5084887;28;20093;-62
2022/01/29 00:04:46;;;;;;;11.40;5.70;;;;;;;-1.86;87.72;98993.41;5086579;28;20120;-63
2022/01/29 00:07:13;;;;;;;8.73;4.57;;;;;;;-1.64;88.51;98989.75;5086094;28;20450;-62
2022/01/29 00:09:42;;;;;;;10.88;6.13;;;;;;;-1.40;88.68;98993.03;5087061;28;20044;-62
2022/01/29 00:12:10;;;;;;;10.27;5.63;;;;;;;-1.38;86.36;98980.44;5079680;28;20028;-62
2022/01/29 00:14:36;;;;;;;9.35;5.60;;;;;;;-1.54;86.10;98981.81;5086825;28;20098;-62
2022/01/29 00:17:03;;;;;;;12.43;5.43;;;;;;;-1.50;86.34;98983.22;5085656;28;20036;-62
2022/01/29 00:19:30;;;;;;;11.40;5.35;;;;;;;-1.60;86.40;98983.19;5084600;28;20523;-62
2022/01/29 00:21:58;;;;;;;10.00;5.68;;;;;;;-1.63;87.20;98985.25;5078231;28;20037;-62
2022/01/29 00:24:25;;;;;;;10.45;5.63;;;;;;;-1.65;87.39;98984.56;5101333;28;20531;-62
2022/01/29 00:26:53;;;;;;;15.20;5.60;;;;;;;-1.65;87.46;98981.91;5085747;28;20044;-62
2022/01/29 00:29:22;;;;;;;11.07;5.28;;;;;;;-1.59;88.08;98976.88;5086321;28;20048;-62
2022/01/29 00:31:49;;;;;;;10.75;5.70;;;;;;;-1.57;87.03;98968.78;5084970;28;20036;-62
2022/01/29 00:34:16;;;;;;;12.27;5.93;;;;;;;-1.59;87.45;98965.41;5084078;28;20055;-62
2022/01/29 00:36:42;;;;;;;12.93;6.15;;;;;;;-1.62;87.64;98971.00;5086855;28;20051;-62
2022/01/29 00:39:09;;;;;;;14.00;6.50;;;;;;;-1.57;87.07;98968.78;5085293;28;20081;-62
2022/01/29 00:41:36;;;;;;;10.43;6.10;;;;;;;-1.81;87.84;98956.66;5081575;28;20050;-62
2022/01/29 00:44:02;;;;;;;11.32;6.03;;;;;;;-1.74;87.95;98944.53;5066997;28;20048;-63
2022/01/29 00:46:29;;;;;;;14.98;8.10;;;;;;;-1.77;88.79;98946.63;5070584;28;20037;-62
2022/01/29 00:48:55;;;;;;;10.65;6.22;;;;;;;-1.65;88.83;98942.06;5076573;28;20112;-62
2022/01/29 00:51:22;;;;;;;14.25;7.07;;;;;;;-1.64;88.17;98947.25;5084384;28;20047;-62
2022/01/29 00:53:49;;;;;;;12.15;6.20;;;;;;;-1.59;88.89;98941.50;5066329;28;20037;-62
2022/01/29 00:56:15;;;;;;;14.57;6.47;;;;;;;-1.35;88.10;98956.28;5065566;28;20047;-62
2022/01/29 00:58:43;;;;;;;12.75;5.47;;;;;;;-1.19;87.87;98959.25;5065625;28;20048;-62
2022/01/29 01:01:10;;;;;;;21.05;7.30;;;;;;;-1.32;86.26;98959.47;5068872;28;20527;-62
2022/01/29 01:03:37;;;;;;;14.10;6.53;;;;;;;-1.21;87.83;98955.06;5065359;28;20032;-62
2022/01/29 01:06:03;;;;;;;11.45;6.32;;;;;;;-1.13;87.06;98962.31;5065095;28;20094;-62
2022/01/29 01:08:30;;;;;;;9.10;5.53;;;;;;;-1.05;86.59;98960.69;5065746;28;20047;-62
2022/01/29 01:10:57;;;;;;;13.25;6.53;;;;;;;-0.94;86.62;98958.84;5076185;28;20052;-62
2022/01/29 01:13:24;;;;;;;10.05;5.35;;;;;;;-1.01;85.05;98958.56;5085255;28;20522;-62
2022/01/29 01:15:51;;;;;;;12.35;6.43;;;;;;;-1.31;86.54;98953.22;5077075;28;20094;-62
2022/01/29 01:18:18;;;;;;;14.38;5.75;;;;;;;-1.40;87.73;98947.88;5084887;28;20431;-63
2022/01/29 01:20:45;;;;;;;11.02;5.80;;;;;;;-1.28;88.59;98945.94;5082344;28;20039;-62
2022/01/29 01:23:11;;;;;;;13.50;7.47;;;;;;;-1.14;88.22;98953.50;5088677;28;20036;-61
2022/01/29 01:25:38;;;;;;;17.20;8.05;;;;;;;-0.88;86.82;98934.38;5093855;28;20279;-62
2022/01/29 01:28:04;;;;;;;16.48;8.00;;;;;;;-0.88;86.49;98939.69;5086007;28;20040;-62
2022/01/29 01:30:32;;;;;;;11.35;6.60;;;;;;;-0.96;86.12;98960.84;5084549;28;20097;-62
2022/01/29 01:33:02;;;;;;;10.93;6.38;;;;;;;-1.05;86.87;98970.47;5072495;28;20086;-62
2022/01/29 01:35:47;;;;;;;13.50;6.75;;;;;;;-1.06;86.97;98974.09;5067513;28;20045;-63
2022/01/29 01:38:21;;;;;;;13.07;5.97;;;;;;;-0.96;88.41;98958.16;5065547;28;20044;-62
2022/01/29 01:40:53;;;;;;;15.80;6.40;;;;;;;-0.80;86.45;98958.44;5077738;28;20044;-62
2022/01/29 01:43:19;;;;;;;12.98;6.75;;;;;;;-0.70;86.01;98961.09;5067745;28;20059;-61
2022/01/29 01:45:46;;;;;;;15.20;5.95;;;;;;;-0.68;85.71;98953.84;5079171;28;20599;-63
2022/01/29 01:48:13;;;;;;;12.13;5.88;;;;;;;-0.69;85.09;98946.00;5077609;28;20040;-62
2022/01/29 01:50:40;;;;;;;13.07;5.72;;;;;;;-0.89;85.80;98943.31;5065163;28;20489;-62
2022/01/29 01:53:07;;;;;;;11.38;5.72;;;;;;;-0.89;86.30;98943.31;5080841;28;20109;-63
2022/01/29 01:55:33;;;;;;;13.20;6.03;;;;;;;-0.87;85.72;98941.38;5078814;28;20032;-63
2022/01/29 01:58:00;;;;;;;14.93;5.68;;;;;;;-0.99;86.46;98943.31;5065087;28;20075;-62
2022/01/29 02:00:28;;;;;;;14.55;5.53;;;;;;;-1.05;86.67;98933.25;5065432;28;20041;-62
2022/01/29 02:02:55;;;;;;;12.15;5.65;;;;;;;-1.01;87.60;98933.78;5069882;28;20507;-62
2022/01/29 02:05:21;;;;;;;10.65;6.03;;;;;;;-0.87;87.45;98927.22;5080193;28;20055;-62
2022/01/29 02:07:48;;;;;;;12.27;6.07;;;;;;;-0.86;87.17;98928.91;5074219;28;20569;-62
2022/01/29 02:10:18;;;;;;;9.85;5.53;;;;;;;-0.99;87.12;98924.69;5069582;28;20098;-62
2022/01/29 02:12:49;;;;;;;14.18;5.63;;;;;;;-1.26;88.28;98910.25;5082539;28;20040;-62
2022/01/29 02:15:17;;;;;;;11.97;7.07;;;;;;;-1.23;88.08;98904.69;5085624;28;20044;-62
2022/01/29 02:17:45;;;;;;;11.52;5.97;;;;;;;-1.26;88.58;98896.16;5083638;28;20324;-62
2022/01/29 02:20:21;;;;;;;11.95;5.63;;;;;;;-1.02;88.45;98887.78;5085433;28;20410;-62
2022/01/29 02:22:48;;;;;;;13.43;5.85;;;;;;;-0.83;88.39;98886.06;5090648;28;20444;-62
2022/01/29 02:25:39;;;;;;;14.63;7.18;;;;;;;-0.74;87.77;98889.72;5105685;28;20044;-62
2022/01/29 02:28:12;;;;;;;11.13;6.20;;;;;;;-0.60;86.71;98885.75;5085751;28;20047;-62
2022/01/29 02:30:41;;;;;;;11.00;5.88;;;;;;;-0.94;87.42;98877.28;5085338;28;20113;-62
2022/01/29 02:33:12;;;;;;;11.68;5.55;;;;;;;-0.99;88.12;98876.00;5071078;28;20044;-62
2022/01/29 02:35:41;;;;;;;13.35;6.10;;;;;;;-0.88;87.95;98867.06;5084728;28;20560;-63
2022/01/29 02:38:12;;;;;;;12.25;6.43;;;;;;;-0.84;87.41;98861.31;5075192;28;20124;-62
2022/01/29 02:40:46;;;;;;;11.82;5.10;;;;;;;-0.81;87.52;98861.00;5086599;28;20047;-62
2022/01/29 02:43:18;;;;;;;13.55;6.78;;;;;;;-0.88;87.61;98859.06;5088444;28;20082;-63
2022/01/29 02:45:46;;;;;;;12.13;6.50;;;;;;;-1.04;88.66;98839.19;5077154;28;20102;-63
2022/01/29 02:48:13;;;;;;;11.93;6.10;;;;;;;-1.06;88.19;98841.16;5071593;28;20109;-62
2022/01/29 02:50:40;;;;;;;13.50;5.97;;;;;;;-1.13;88.45;98842.69;5080196;28;20048;-61
2022/01/29 02:53:07;;;;;;;12.45;5.53;;;;;;;-0.96;88.38;98838.50;5087519;28;20036;-62
2022/01/29 02:55:34;;;;;;;14.73;6.18;;;;;;;-0.93;88.33;98825.75;5081959;28;20050;-62
2022/01/29 02:58:02;;;;;;;13.45;6.88;;;;;;;-0.93;87.64;98823.09;5068441;28;20048;-61
2022/01/29 03:00:29;;;;;;;11.13;5.53;;;;;;;-1.03;88.48;98811.66;5072956;28;20039;-62
2022/01/29 03:02:56;;;;;;;11.88;5.90;;;;;;;-1.09;88.41;98813.06;5076879;28;20041;-62
2022/01/29 03:05:23;;;;;;;12.25;6.47;;;;;;;-1.05;88.77;98800.31;5071543;28;20044;-62
2022/01/29 03:07:49;;;;;;;16.00;7.30;;;;;;;-0.76;88.19;98794.09;5088428;28;20052;-62
2022/01/29 03:10:16;;;;;;;12.75;6.72;;;;;;;-0.69;87.48;98803.19;5082739;28;20045;-62
2022/01/29 03:12:42;;;;;;;11.20;6.00;;;;;;;-0.55;87.26;98799.22;5077609;28;20396;-62
2022/01/29 03:15:11;;;;;;;13.95;6.40;;;;;;;-0.51;86.17;98790.94;5083925;28;20032;-62
2022/01/29 03:17:38;;;;;;;14.90;6.40;;;;;;;-0.39;85.15;98792.44;5083926;28;20044;-62
2022/01/29 03:20:05;;;;;;;11.18;6.43;;;;;;;-0.38;85.55;98793.28;5085724;28;20044;-63
2022/01/29 03:22:32;;;;;;;11.23;6.07;;;;;;;-0.23;85.45;98788.34;5078343;28;20085;-62
2022/01/29 03:24:58;;;;;;;12.68;6.95;;;;;;;-0.53;85.41;98788.44;5098265;28;20036;-62
2022/01/29 03:27:25;;;;;;;13.60;5.43;;;;;;;-0.69;86.55;98778.41;5088224;28;20275;-62
2022/01/29 03:29:51;;;;;;;10.73;5.35;;;;;;;-0.75;87.39;98781.63;5086804;28;20043;-63
2022/01/29 03:32:18;;;;;;;11.25;6.35;;;;;;;-0.61;86.93;98783.84;5078574;28;20479;-62
2022/01/29 03:34:44;;;;;;;15.73;6.57;;;;;;;-0.48;86.74;98788.00;5071979;28;20044;-63
2022/01/29 03:37:11;;;;;;;14.50;6.68;;;;;;;-0.33;85.26;98788.38;5086925;28;20036;-62
2022/01/29 03:39:38;;;;;;;13.77;6.18;;;;;;;-0.29;86.02;98787.09;5070970;28;20052;-62
2022/01/29 03:42:08;;;;;;;11.02;6.28;;;;;;;-0.33;85.24;98794.50;5074931;28;20048;-62
2022/01/29 03:44:35;;;;;;;11.30;5.28;;;;;;;-0.32;85.91;98790.03;5088043;28;20524;-61
2022/01/29 03:47:01;;;;;;;12.68;6.57;;;;;;;-0.31;85.92;98789.91;5081143;28;20086;-62
2022/01/29 03:49:28;;;;;;;11.23;5.47;;;;;;;-0.21;84.88;98789.00;5084213;28;20032;-62
2022/01/29 03:51:55;;;;;;;9.10;5.60;;;;;;;-0.42;84.78;98790.91;5086857;28;20388;-62
2022/01/29 03:54:21;;;;;;;12.27;5.90;;;;;;;-0.47;86.16;98792.34;5087706;28;20052;-62
2022/01/29 03:56:48;;;;;;;10.43;5.60;;;;;;;-0.37;86.44;98786.97;5083648;28;20105;-63
2022/01/29 03:59:14;;;;;;;12.55;5.85;;;;;;;-0.38;86.16;98794.13;5066777;28;20040;-62
2022/01/29 04:01:41;;;;;;;14.43;6.35;;;;;;;-0.34;86.59;98782.19;5074423;28;20048;-63
2022/01/29 04:04:08;;;;;;;9.35;4.97;;;;;;;-0.44;84.99;98776.09;5068065;28;20127;-62
2022/01/29 04:06:34;;;;;;;10.88;5.47;;;;;;;-0.60;86.06;98772.22;5077186;28;20040;-63
2022/01/29 04:09:05;;;;;;;10.35;5.15;;;;;;;-0.72;86.93;98770.69;5067693;28;20500;-62
2022/01/29 04:11:36;;;;;;;12.52;6.40;;;;;;;-0.66;86.66;98778.94;5068521;28;20090;-62
2022/01/29 04:14:04;;;;;;;10.43;5.10;;;;;;;-0.56;86.94;98792.22;5084204;28;20036;-62
2022/01/29 04:16:30;;;;;;;8.60;4.90;;;;;;;-0.53;85.48;98788.44;5073611;28;20051;-62
2022/01/29 04:18:57;;;;;;;13.00;6.47;;;;;;;-0.78;86.58;98780.09;5086485;28;20411;-62
2022/01/29 04:21:23;;;;;;;13.20;6.55;;;;;;;-0.96;87.59;98767.53;5073137;28;20090;-62
2022/01/29 04:23:50;;;;;;;12.45;5.68;;;;;;;-0.89;88.57;98777.63;5096671;28;20042;-62
2022/01/29 04:26:16;;;;;;;12.85;6.50;;;;;;;-0.94;87.43;98778.03;5092270;28;20048;-62
2022/01/29 04:28:44;;;;;;;14.88;8.35;;;;;;;-0.84;89.12;98786.00;5086282;28;20048;-62
2022/01/29 04:31:16;;;;;;;10.43;5.25;;;;;;;-0.75;87.46;98798.44;5080171;28;20040;-62
2022/01/29 04:33:42;;;;;;;10.48;5.70;;;;;;;-0.85;86.66;98773.69;5068185;28;20115;-62
2022/01/29 04:36:09;;;;;;;14.90;7.43;;;;;;;-0.73;87.41;98756.59;5066208;28;20044;-62
2022/01/29 04:38:36;;;;;;;17.05;8.70;;;;;;;-0.71;87.80;98757.25;5084266;28;20044;-62
2022/01/29 04:41:04;;;;;;;18.27;9.63;;;;;;;-0.67;88.25;98755.13;5082979;28;20044;-61
2022/01/29 04:43:32;;;;;;;19.50;10.23;;;;;;;-0.64;88.63;98757.53;5074500;28;20048;-62
2022/01/29 04:46:03;;;;;;;21.77;10.65;;;;;;;-0.54;87.39;98749.50;5071147;28;20109;-63
2022/01/29 04:48:29;;;;;;;21.50;10.15;;;;;;;-0.59;87.60;98746.44;5085487;28;20626;-62
2022/01/29 04:50:56;;;;;;;19.15;9.80;;;;;;;-0.59;87.27;98749.94;5085401;28;20043;-62
2022/01/29 04:53:22;;;;;;;17.13;9.20;;;;;;;-0.52;87.59;98758.16;5086479;28;20097;-63
2022/01/29 04:55:49;;;;;;;16.48;9.52;;;;;;;-0.47;87.46;98750.59;5082075;28;20047;-62
2022/01/29 04:58:15;;;;;;;17.10;9.95;;;;;;;-0.63;87.09;98753.06;5075639;28;20040;-62
2022/01/29 05:00:42;;;;;;;17.33;9.32;;;;;;;-0.81;88.46;98736.00;5084957;28;20058;-63
2022/01/29 05:03:14;;;;;;;20.05;9.38;;;;;;;-0.70;89.27;98756.28;5086428;28;20123;-62
2022/01/29 05:05:42;;;;;;;26.17;11.30;;;;;;;-0.54;88.50;98762.81;5078030;28;20062;-63
2022/01/29 05:08:12;;;;;;;22.25;11.38;;;;;;;-0.45;87.82;98777.03;5082237;28;20036;-62
2022/01/29 05:10:39;;;;;;;21.23;10.57;;;;;;;-0.37;87.54;98794.97;5083272;28;20055;-64
2022/01/29 05:13:09;;;;;;;22.10;11.80;;;;;;;-0.29;86.75;98809.19;5085347;28;20047;-62
2022/01/29 05:29:05;;;;;;;20.63;11.70;;;;;;;-0.10;86.18;98802.13;5084487;28;20510;-62
2022/01/29 05:31:32;;;;;;;18.58;10.63;;;;;;;-0.05;85.79;98791.03;5080285;28;20047;-63
2022/01/29 05:33:59;;;;;;;18.98;10.20;;;;;;;-0.02;85.28;98777.41;5081524;28;20060;-62
2022/01/29 05:36:26;;;;;;;19.38;10.32;;;;;;;-0.24;86.49;98787.47;5075634;28;20097;-63
2022/01/29 05:38:56;;;;;;;22.67;12.35;;;;;;;-0.23;86.08;98789.16;5084910;28;20722;-62
2022/01/29 05:41:23;;;;;;;16.40;9.60;;;;;;;-0.35;86.80;98788.50;5079024;28;20036;-62
2022/01/29 05:43:50;;;;;;;20.83;12.00;;;;;;;-0.34;86.68;98787.50;5085017;28;20036;-62
2022/01/29 05:46:17;;;;;;;20.13;10.82;;;;;;;-0.32;86.71;98784.72;5084429;28;20055;-62
2022/01/29 05:48:44;;;;;;;23.13;10.65;;;;;;;-0.32;87.21;98782.06;5084801;28;20415;-62
2022/01/29 05:51:11;;;;;;;23.38;11.73;;;;;;;-0.28;86.63;98775.44;5084944;28;20750;-62
2022/01/29 05:53:38;;;;;;;18.17;10.68;;;;;;;-0.23;86.39;98793.66;5085643;28;20048;-63
2022/01/29 05:56:05;;;;;;;21.83;10.52;;;;;;;-0.28;86.83;98784.28;5084247;28;20700;-62
2022/01/29 05:58:32;;;;;;;20.52;10.82;;;;;;;-0.36;86.69;98780.66;5085328;28;20040;-62
2022/01/29 06:00:59;;;;;;;21.95;11.02;;;;;;;-0.35;87.37;98769.03;5068494;28;20812;-62
2022/01/29 06:03:26;;;;;;;23.63;11.60;;;;;;;-0.39;87.00;98773.81;5079610;28;20046;-63
2022/01/29 06:05:52;;;;;;;24.58;12.38;;;;;;;-0.45;87.19;98764.59;5088882;28;20112;-63
2022/01/29 06:08:19;;;;;;;25.38;12.95;;;;;;;-0.48;87.67;98759.56;5088940;28;20032;-62
2022/01/29 06:10:46;;;;;;;20.15;11.35;;;;;;;-0.45;87.15;98758.41;5087438;28;20511;-63
2022/01/29 06:13:15;;;;;;;24.95;11.70;;;;;;;-0.50;88.09;98744.72;5080211;28;20473;-62
2022/01/29 06:15:47;;;;;;;24.20;11.55;;;;;;;-0.49;87.32;98754.38;5088542;28;20044;-62
2022/01/29 06:18:19;;;;;;;27.10;14.43;;;;;;;-0.42;87.04;98750.16;5088872;28;20051;-62
2022/01/29 06:20:48;;;;;;;21.25;10.98;;;;;;;-0.42;86.93;98758.97;5084382;28;20051;-62
2022/01/29 06:23:18;;;;;;;22.10;11.10;;;;;;;-0.40;86.74;98757.00;5097473;28;20039;-62
2022/01/29 06:25:44;;;;;;;22.70;12.40;;;;;;;-0.38;86.54;98764.03;5087209;28;20048;-62
2022/01/29 06:28:11;;;;;;;21.73;11.38;;;;;;;-0.38;86.56;98764.84;5070737;28;20036;-62
2022/01/29 06:30:38;;;;;;;19.50;11.07;;;;;;;-0.24;86.42;98762.66;5083208;28;20051;-62
2022/01/29 06:33:10;;;;;;;19.83;10.48;;;;;;;-0.17;85.94;98758.44;5080769;28;20044;-62
2022/01/29 06:35:38;;;;;;;18.90;9.68;;;;;;;-0.16;85.07;98752.97;5068567;28;20401;-62
2022/01/29 06:38:06;;;;;;;16.70;9.07;;;;;;;0.10;83.80;98756.72;5067955;28;20051;-62
2022/01/29 06:40:33;;;;;;;14.05;6.93;;;;;;;0.21;81.83;98750.34;5069207;28;20522;-62
2022/01/29 06:43:01;;;;;;;11.18;6.78;;;;;;;0.31;81.20;98756.47;5073145;28;20043;-62
2022/01/29 06:45:31;;;;;;;11.88;6.40;;;;;;;0.41;80.28;98758.22;5088607;28;20093;-63
2022/01/29 06:47:57;;;;;;;8.57;4.32;;;;;;;0.55;79.17;98765.66;5074886;28;20039;-62
2022/01/29 06:50:24;;;;;;;11.30;5.78;;;;;;;0.64;78.74;98754.09;5088204;28;20105;-63
2022/01/29 06:52:51;;;;;;;12.95;6.35;;;;;;;0.61;78.70;98757.06;5088646;28;20097;-62
2022/01/29 06:55:18;;;;;;;9.70;5.18;;;;;;;0.78;78.08;98763.38;5088903;28;20040;-63
2022/01/29 06:57:45;;;;;;;11.30;5.30;;;;;;;0.86;77.70;98757.28;5070528;28;20044;-61
2022/01/29 07:00:31;;;;;;;13.70;5.57;;;;;;;0.87;77.35;98755.44;5082089;28;20047;-63
2022/01/29 07:02:58;;;;;;;10.98;5.85;;;;;;;0.74;77.94;98751.34;5084508;28;20040;-63
2022/01/29 07:05:25;;;;;;;7.95;4.18;;;;;;;0.75;77.97;98749.50;5087511;28;20040;-62
2022/01/29 07:07:52;;;;;;;10.70;4.63;;;;;;;0.79;77.61;98742.88;5069970;28;20045;-63
2022/01/29 07:10:18;;;;;;;9.20;5.72;;;;;;;0.67;79.05;98747.63;5084080;28;20037;-63
2022/01/29 07:12:45;;;;;;;11.90;5.80;;;;;;;0.59;79.47;98751.03;5087671;28;20113;-62
2022/01/29 07:15:12;;;;;;;11.23;6.18;;;;;;;0.68;78.94;98746.63;5086489;28;20078;-57
2022/01/29 07:17:39;;;;;;;13.95;6.18;;;;;;;0.86;78.95;98743.94;5085634;28;20754;-57
2022/01/29 07:20:07;;;;;;;11.35;5.68;;;;;;;1.11;79.02;98738.75;5085632;28;20395;-57
2022/01/29 07:22:33;;;;;;;12.60;6.50;;;;;;;1.00;77.57;98737.19;5082253;28;20044;-58
2022/01/29 07:25:00;;;;;;;12.48;5.90;;;;;;;0.96;77.70;98729.66;5074807;28;20076;-56
2022/01/29 07:27:26;;;;;;;9.73;5.88;;;;;;;0.84;78.58;98727.25;5090155;28;20499;-56
2022/01/29 07:29:55;;;;;;;10.18;5.32;;;;;;;0.79;78.39;98721.56;5082071;28;20754;-63
2022/01/29 07:32:21;;;;;;;10.45;5.10;;;;;;;0.96;78.07;98727.00;5088151;28;20657;-63
2022/01/29 07:34:48;;;;;;;8.50;4.97;;;;;;;1.14;77.08;98714.44;5083965;28;20040;-63
2022/01/29 07:37:15;;;;;;;7.13;3.97;;;;;;;1.26;77.03;98707.00;5072480;28;20074;-62
2022/01/29 07:39:41;;;;;;;9.75;4.97;;;;;;;1.12;77.02;98700.44;5081687;28;20059;-62
2022/01/29 07:42:08;;;;;;;9.90;4.68;;;;;;;1.15;76.87;98704.63;5080573;28;20048;-62
2022/01/29 07:44:35;;;;;;;7.43;4.50;;;;;;;1.04;77.31;98711.88;5078319;28;20059;-62
2022/01/29 07:47:02;;;;;;;9.05;4.18;;;;;;;1.26;76.58;98719.50;5096579;28;20060;-62
2022/01/29 07:49:28;;;;;;;7.05;3.85;;;;;;;1.33;76.48;98719.72;5069676;28;20090;-62
2022/01/29 07:51:54;;;;;;;7.32;3.80;;;;;;;1.37;76.18;98721.88;5084731;28;20674;-61
2022/01/29 07:54:21;;;;;;;7.25;3.67;;;;;;;1.25;76.76;98726.69;5074738;28;20044;-64
2022/01/29 07:56:48;;;;;;;9.35;4.00;;;;;;;1.36;76.58;98722.91;5084041;28;20105;-62
2022/01/29 07:59:14;;;;;;;8.75;4.25;;;;;;;1.41;76.40;98720.56;5081556;28;20640;-63
2022/01/29 08:01:41;;;;;;;8.55;3.70;;;;;;;1.50;76.36;98717.94;5084173;28;20051;-63
2022/01/29 08:04:07;;;;;;;7.68;3.35;;;;;;;1.53;76.17;98713.16;5083908;28;20152;-63
2022/01/29 08:06:34;;;;;;;7.28;4.03;;;;;;;1.50;76.49;98715.28;5084210;28;20047;-64
2022/01/29 08:09:01;;;;;;;9.88;4.60;;;;;;;1.42;77.06;98708.09;5081333;28;20044;-62
2022/01/29 08:11:27;;;;;;;7.13;3.97;;;;;;;1.56;76.16;98707.47;5082703;28;20043;-64
2022/01/29 08:13:54;;;;;;;7.43;3.40;;;;;;;1.55;76.52;98721.81;5078906;28;20039;-65
2022/01/29 08:16:20;;;;;;;6.25;3.33;;;;;;;1.67;75.52;98717.00;5090256;28;20911;-65
2022/01/29 08:18:47;;;;;;;8.13;4.13;;;;;;;1.58;76.10;98712.66;5096991;28;20511;-63
2022/01/29 08:21:16;;;;;;;6.05;3.33;;;;;;;1.64;76.11;98709.34;5083003;28;20044;-63
2022/01/29 08:23:43;;;;;;;11.63;3.80;;;;;;;1.71;76.11;98703.34;5084484;28;20051;-63
2022/01/29 08:26:10;;;;;;;7.07;3.60;;;;;;;1.71;75.97;98698.00;5085076;28;20043;-62
2022/01/29 08:28:38;;;;;;;6.40;3.40;;;;;;;1.76;75.54;98693.00;5080680;28;20029;-62
2022/01/29 08:31:05;;;;;;;7.75;3.50;;;;;;;1.77;75.90;98694.72;5081103;28;20059;-62
2022/01/29 08:33:32;;;;;;;9.13;3.17;;;;;;;1.82;75.15;98687.03;5096113;28;20415;-63
2022/01/29 08:35:59;;;;;;;5.13;2.95;;;;;;;1.92;75.24;98687.72;5083581;28;20036;-63
2022/01/29 08:38:27;;;;;;;7.18;3.50;;;;;;;2.06;74.50;98698.75;5089556;28;20044;-62
2022/01/29 08:40:54;;;;;;;8.68;3.10;;;;;;;2.15;73.71;98695.13;5083302;28;20105;-62
2022/01/29 08:43:22;;;;;;;6.32;3.10;;;;;;;2.05;74.45;98697.94;5093234;28;20523;-62
2022/01/29 08:45:50;;;;;;;4.70;2.42;;;;;;;1.99;74.33;98695.91;5080029;28;20040;-64
2022/01/29 08:48:18;;;;;;;6.10;2.78;;;;;;;2.14;73.39;98690.75;5083953;28;20810;-64
2022/01/29 08:50:45;;;;;;;4.95;3.13;;;;;;;2.21;73.62;98689.13;5081458;28;20368;-62
2022/01/29 08:53:15;;;;;;;6.32;2.88;;;;;;;2.24;73.81;98687.13;5094133;28;20089;-63
2022/01/29 08:55:42;;;;;;;8.55;3.00;;;;;;;2.38;73.31;98683.78;5078592;28;20048;-62
2022/01/29 08:58:09;;;;;;;5.65;2.65;;;;;;;2.57;72.47;98679.94;5076138;28;20048;-62
2022/01/29 09:00:38;;;;;;;5.07;2.80;;;;;;;2.63;72.05;98680.28;5087715;28;20536;-62
2022/01/29 09:03:06;;;;;;;7.03;2.45;;;;;;;2.38;73.12;98669.56;5083116;28;20035;-62
2022/01/29 09:05:34;;;;;;;6.07;2.55;;;;;;;2.41;73.04;98671.91;5081199;28;20204;-63
2022/01/29 09:08:03;;;;;;;6.40;3.33;;;;;;;2.58;72.66;98670.09;5082179;28;20039;-63
2022/01/29 09:10:31;;;;;;;5.32;2.50;;;;;;;2.68;72.12;98668.06;5075975;28;20664;-64
2022/01/29 09:12:57;;;;;;;6.03;2.40;;;;;;;2.61;72.16;98675.09;5079347;28;20453;-63
2022/01/29 09:15:24;;;;;;;7.90;2.92;;;;;;;2.72;72.60;98676.56;5084229;28;20036;-64
2022/01/29 09:17:51;;;;;;;7.25;2.47;;;;;;;2.67;72.26;98671.75;5082574;28;20126;-63
2022/01/29 09:20:17;;;;;;;9.85;4.57;;;;;;;2.78;72.31;98665.22;5086805;28;20058;-65
2022/01/29 09:22:44;;;;;;;5.18;2.55;;;;;;;2.98;71.65;98664.81;5077987;28;20048;-63
2022/01/29 09:25:11;;;;;;;4.97;2.72;;;;;;;3.14;71.32;98669.31;5082509;28;20101;-63
2022/01/29 09:27:38;;;;;;;5.10;2.55;;;;;;;3.23;71.59;98668.28;5074843;28;20526;-63
2022/01/29 09:30:07;;;;;;;21.73;8.95;;;;;;;3.15;71.89;98671.00;5065857;28;20040;-63
2022/01/29 09:32:34;;;;;;;6.72;3.05;;;;;;;3.40;71.47;98656.69;5066233;28;20032;-64
2022/01/29 09:35:00;;;;;;;14.63;5.75;;;;;;;3.51;70.35;98657.13;5084517;28;20066;-65
2022/01/29 09:37:27;;;;;;;10.23;4.30;;;;;;;3.53;70.90;98651.59;5076206;28;20037;-63
2022/01/29 09:39:55;;;;;;;8.45;5.05;;;;;;;3.33;71.04;98653.84;5073901;28;20047;-64
2022/01/29 09:42:24;;;;;;;12.35;5.78;;;;;;;3.25;71.94;98642.16;5086237;28;20055;-64
2022/01/29 09:44:52;;;;;;;6.47;3.13;;;;;;;3.60;71.22;98654.41;5085097;28;20051;-64
2022/01/29 09:47:23;;;;;;;5.78;2.80;;;;;;;3.81;71.07;98652.97;5083635;28;20048;-64
2022/01/29 09:49:52;;;;;;;5.73;2.50;;;;;;;3.86;71.23;98650.59;5103536;28;20058;-64
2022/01/29 09:52:19;;;;;;;6.82;2.72;;;;;;;4.13;70.25;98656.47;5099930;28;20040;-65
2022/01/29 09:54:47;;;;;;;9.13;3.85;;;;;;;4.21;70.28;98659.09;5095411;28;20040;-63
2022/01/29 09:57:15;;;;;;;8.57;3.65;;;;;;;4.40;69.76;98662.28;5085751;28;20044;-62
2022/01/29 09:59:41;;;;;;;5.20;2.45;;;;;;;4.33;70.76;98661.31;5081444;28;20051;-62
2022/01/29 10:02:16;;;;;;;6.00;2.42;;;;;;;4.57;70.36;98662.16;5075787;28;20113;-64
2022/01/29 10:04:56;;;;;;;6.80;2.42;;;;;;;4.55;70.98;98662.31;5076441;28;20120;-64
2022/01/29 10:07:25;;;;;;;8.43;3.80;;;;;;;4.33;71.95;98650.59;5080191;28;20461;-63
2022/01/29 10:09:53;;;;;;;13.50;6.38;;;;;;;4.44;71.88;98655.53;5080202;28;20044;-63
2022/01/29 10:12:26;;;;;;;21.33;9.48;;;;;;;4.39;72.07;98653.41;5095214;28;20411;-64
2022/01/29 10:15:06;;;;;;;10.88;4.40;;;;;;;4.37;72.24;98651.91;5091807;28;20127;-65
2022/01/29 10:17:39;;;;;;;10.23;3.45;;;;;;;4.28;72.88;98651.16;5086543;28;20048;-65
2022/01/29 10:20:10;;;;;;;3.97;2.30;;;;;;;4.43;72.95;98654.69;5079727;28;20036;-63
2022/01/29 10:22:37;;;;;;;3.38;1.58;;;;;;;4.66;72.15;98650.31;5075274;28;20694;-66
2022/01/29 10:25:12;;;;;;;8.85;3.67;;;;;;;4.72;72.57;98646.91;5078823;28;20056;-65
2022/01/29 10:27:39;;;;;;;15.52;6.15;;;;;;;4.80;72.31;98638.78;5082289;28;20450;-64
2022/01/29 10:30:10;;;;;;;5.15;2.10;;;;;;;4.97;72.58;98640.47;5081002;28;20032;-65
2022/01/29 10:32:37;;;;;;;6.68;2.53;;;;;;;5.00;72.88;98642.78;5081201;28;20044;-63
2022/01/29 10:35:04;;;;;;;3.25;1.48;;;;;;;5.14;72.92;98636.59;5084779;28;20047;-63
2022/01/29 10:37:30;;;;;;;2.15;1.00;;;;;;;5.34;72.79;98638.69;5082499;28;20105;-64
2022/01/29 10:40:15;;;;;;;2.78;1.15;;;;;;;5.39;73.67;98619.34;5081036;28;20055;-64
2022/01/29 10:42:42;;;;;;;4.38;1.27;;;;;;;5.38;74.24;98631.94;5083368;28;20074;-66
2022/01/29 10:45:09;;;;;;;2.03;0.85;;;;;;;5.36;75.02;98622.41;5081084;28;20040;-62
2022/01/29 10:47:57;;;;;;;0.90;0.55;;;;;;;5.32;75.46;98627.31;5084889;28;20632;-64
2022/01/29 10:50:24;;;;;;;2.53;1.00;;;;;;;5.30;75.18;98611.38;5089522;28;20125;-64
2022/01/29 10:52:51;;;;;;;0.73;0.55;;;;;;;5.56;74.05;98620.78;5094558;28;20040;-64
2022/01/29 10:55:17;;;;;;;1.35;0.65;;;;;;;5.79;73.90;98618.97;5082486;28;20046;-64
2022/01/29 10:57:46;;;;;;;4.20;1.13;;;;;;;5.81;73.69;98614.25;5088177;28;20044;-65
2022/01/29 11:00:16;;;;;;;1.98;0.82;;;;;;;5.93;73.76;98615.41;5093122;28;20044;-64
2022/01/29 11:02:44;;;;;;;0.88;0.50;;;;;;;5.97;72.80;98614.00;5083858;28;20099;-65
2022/01/29 11:05:11;;;;;;;2.28;1.05;;;;;;;5.86;73.85;98609.13;5079321;28;20085;-64
2022/01/29 11:07:38;;;;;;;1.20;0.65;;;;;;;5.98;73.38;98610.28;5089809;28;20044;-64
2022/01/29 11:10:08;;;;;;;0.90;0.50;;;;;;;5.88;73.23;98600.88;5081070;28;20048;-64
2022/01/29 11:12:45;;;;;;;1.33;0.60;;;;;;;5.78;73.80;98599.31;5077182;28;20047;-64
2022/01/29 11:15:14;;;;;;;2.43;0.70;;;;;;;5.78;74.11;98593.94;5084445;28;20040;-64
2022/01/29 11:17:42;;;;;;;0.85;0.50;;;;;;;5.71;74.54;98595.72;5083608;28;20097;-63
2022/01/29 11:20:10;;;;;;;0.98;0.47;;;;;;;5.75;74.22;98591.63;5079067;28;20058;-64
2022/01/29 11:22:40;;;;;;;1.10;0.60;;;;;;;5.63;74.78;98591.31;5086659;28;20043;-64
2022/01/29 11:25:21;;;;;;;1.73;0.80;;;;;;;5.65;75.10;98593.81;5082484;28;20033;-64
2022/01/29 11:27:47;;;;;;;0.80;0.40;;;;;;;5.72;75.19;98578.59;5083382;28;20053;-64
2022/01/29 11:30:15;;;;;;;1.85;0.68;;;;;;;5.76;74.99;98585.25;5078980;28;20036;-65
2022/01/29 11:32:47;;;;;;;6.60;2.30;;;;;;;5.60;74.49;98576.41;5084781;28;20043;-64
2022/01/29 11:35:30;;;;;;;1.75;0.75;;;;;;;5.64;74.64;98576.03;5071927;28;20044;-66
2022/01/29 11:38:03;;;;;;;2.58;0.98;;;;;;;5.63;73.93;98574.38;5083039;28;20044;-64
2022/01/29 11:40:52;;;;;;;1.20;0.70;;;;;;;5.82;73.48;98581.78;5082598;28;20032;-64
2022/01/29 11:43:19;;;;;;;3.08;1.05;;;;;;;5.79;73.43;98581.34;5084945;28;20048;-63
2022/01/29 11:45:58;;;;;;;2.95;1.27;;;;;;;5.79;73.96;98571.41;5086243;28;20040;-64
2022/01/29 11:48:25;;;;;;;2.42;1.10;;;;;;;5.55;75.17;98561.88;5086623;28;20044;-63
2022/01/29 11:50:53;;;;;;;6.82;2.42;;;;;;;5.51;74.54;98568.63;5086520;28;20055;-64